createdAt,value
2019-01-20T00:00:06.491Z,67.10
2019-01-20T00:01:06.475Z,65.60
2019-01-20T00:02:06.528Z,64.60
2019-01-20T00:03:06.444Z,67.70
2019-01-20T00:04:06.445Z,65.40
2019-01-20T00:05:06.437Z,62.80
2019-01-20T00:06:06.432Z,65.60
2019-01-20T00:07:06.491Z,64.60
2019-01-20T00:08:06.388Z,64.30
2019-01-20T00:09:06.379Z,67.70
2019-01-20T00:10:06.362Z,65.60
2019-01-20T00:11:06.786Z,69.20
2019-01-20T00:12:06.363Z,64.20
2019-01-20T00:13:06.483Z,65.80
2019-01-20T00:14:06.382Z,68.20
2019-01-20T00:15:06.402Z,64.30
2019-01-20T00:16:06.383Z,66.90
2019-01-20T00:17:06.375Z,69.60
2019-01-20T00:18:06.382Z,67.60
2019-01-20T00:19:06.288Z,69.60
2019-01-20T00:20:06.308Z,67.50
2019-01-20T00:21:06.264Z,67.00
2019-01-20T00:22:06.256Z,67.60
2019-01-20T00:23:06.317Z,67.90
2019-01-20T00:24:06.266Z,65.70
2019-01-20T00:25:06.337Z,71.00
2019-01-20T00:26:06.206Z,68.00
2019-01-20T00:27:06.353Z,71.00
2019-01-20T00:28:06.218Z,65.60
2019-01-20T00:29:06.961Z,66.00
2019-01-20T00:30:06.202Z,68.50
2019-01-20T00:31:06.220Z,67.30
2019-01-20T00:32:06.171Z,70.80
2019-01-20T00:33:06.170Z,68.80
2019-01-20T00:34:06.207Z,71.70
2019-01-20T00:35:06.104Z,67.40
2019-01-20T00:36:06.169Z,70.70
2019-01-20T00:37:06.101Z,69.10
2019-01-20T00:38:06.114Z,63.70
2019-01-20T00:39:06.120Z,71.10
2019-01-20T00:40:06.162Z,69.30
2019-01-20T00:41:06.058Z,67.10
2019-01-20T00:42:06.056Z,68.90
2019-01-20T00:43:06.038Z,69.40
2019-01-20T00:44:06.875Z,68.70
2019-01-20T00:45:06.046Z,72.20
2019-01-20T00:46:06.142Z,65.90
2019-01-20T00:47:06.008Z,68.10
2019-01-20T00:48:06.054Z,66.00
2019-01-20T00:49:05.991Z,69.20
2019-01-20T00:50:06.041Z,67.40
2019-01-20T00:51:05.977Z,67.50
2019-01-20T00:52:05.979Z,68.30
2019-01-20T00:53:05.932Z,69.10
2019-01-20T00:54:05.934Z,73.40
2019-01-20T00:55:05.922Z,67.10
2019-01-20T00:56:05.902Z,68.20
2019-01-20T00:57:05.879Z,71.40
2019-01-20T00:58:05.921Z,70.70
2019-01-20T00:59:05.885Z,68.40
2019-01-20T01:00:05.892Z,62.90
2019-01-20T01:01:06.542Z,69.10
2019-01-20T01:02:05.840Z,72.40
2019-01-20T01:03:05.851Z,68.30
2019-01-20T01:04:05.832Z,67.00
2019-01-20T01:05:05.814Z,68.90
2019-01-20T01:06:05.844Z,65.60
2019-01-20T01:07:06.491Z,69.00
2019-01-20T01:08:05.781Z,66.70
2019-01-20T01:09:05.879Z,65.60
2019-01-20T01:10:05.792Z,67.30
2019-01-20T01:11:05.780Z,69.00
2019-01-20T01:12:06.203Z,65.60
2019-01-20T01:13:05.718Z,65.60
2019-01-20T01:14:05.754Z,70.70
2019-01-20T01:15:05.721Z,64.10
2019-01-20T01:16:05.757Z,64.50
2019-01-20T01:17:05.688Z,69.90
2019-01-20T01:18:05.711Z,63.60
2019-01-20T01:19:05.935Z,69.70
2019-01-20T01:20:05.707Z,65.80
2019-01-20T01:21:05.653Z,66.70
2019-01-20T01:22:05.635Z,65.20
2019-01-20T01:23:05.672Z,68.60
2019-01-20T01:24:05.635Z,67.90
2019-01-20T01:25:05.688Z,66.80
2019-01-20T01:26:05.627Z,67.60
2019-01-20T01:27:05.606Z,68.60
2019-01-20T01:28:05.653Z,68.50
2019-01-20T01:29:05.901Z,63.00
2019-01-20T01:30:05.575Z,63.90
2019-01-20T01:31:05.579Z,68.80
2019-01-20T01:32:05.606Z,63.20
2019-01-20T01:33:05.524Z,64.60
2019-01-20T01:34:05.578Z,62.20
2019-01-20T01:35:05.599Z,65.20
2019-01-20T01:36:05.507Z,64.80
2019-01-20T01:37:05.481Z,67.70
2019-01-20T01:38:05.475Z,65.10
2019-01-20T01:39:05.518Z,69.30
2019-01-20T01:40:05.507Z,65.50
2019-01-20T01:41:05.446Z,65.60
2019-01-20T01:42:05.450Z,62.00
2019-01-20T01:43:05.451Z,70.60
2019-01-20T01:44:05.544Z,65.70
2019-01-20T01:45:05.466Z,66.30
2019-01-20T01:46:05.721Z,67.90
2019-01-20T01:47:05.438Z,65.10
2019-01-20T01:48:05.383Z,63.40
2019-01-20T01:49:05.402Z,71.20
2019-01-20T01:50:05.425Z,66.40
2019-01-20T01:51:05.355Z,66.90
2019-01-20T01:52:05.381Z,66.80
2019-01-20T01:53:05.339Z,65.10
2019-01-20T01:54:05.314Z,63.50
2019-01-20T01:55:05.325Z,68.20
2019-01-20T01:56:05.309Z,65.00
2019-01-20T01:57:05.341Z,67.00
2019-01-20T01:58:05.287Z,66.90
2019-01-20T01:59:05.271Z,65.60
2019-01-20T02:00:05.294Z,67.20
2019-01-20T02:01:05.304Z,64.20
2019-01-20T02:02:05.271Z,72.60
2019-01-20T02:03:05.230Z,64.40
2019-01-20T02:04:05.217Z,63.90
2019-01-20T02:05:05.198Z,63.40
2019-01-20T02:06:05.204Z,64.00
2019-01-20T02:07:05.204Z,65.90
2019-01-20T02:08:05.196Z,68.70
2019-01-20T02:09:15.603Z,66.70
2019-01-20T02:10:05.302Z,67.80
2019-01-20T02:11:14.631Z,64.00
2019-01-20T02:12:05.144Z,67.80
2019-01-20T02:13:05.127Z,70.00
2019-01-20T02:15:30.809Z,59.80
2019-01-20T02:16:22.520Z,65.20
2019-01-20T02:17:32.486Z,66.00
2019-01-20T02:18:22.500Z,64.40
2019-01-20T02:19:23.347Z,66.50
2019-01-20T02:20:22.494Z,73.80
2019-01-20T02:21:22.650Z,64.90
2019-01-20T02:22:22.469Z,71.50
2019-01-20T02:23:32.089Z,63.50
2019-01-20T02:24:22.648Z,61.60
2019-01-20T02:25:22.436Z,71.50
2019-01-20T02:26:22.449Z,67.40
2019-01-20T02:27:22.430Z,66.90
2019-01-20T02:28:22.439Z,66.10
2019-01-20T02:29:22.409Z,66.50
2019-01-20T02:30:22.431Z,69.70
2019-01-20T02:31:22.428Z,67.60
2019-01-20T02:32:22.440Z,65.70
2019-01-20T02:33:22.462Z,72.70
2019-01-20T02:34:22.475Z,65.20
2019-01-20T02:35:22.336Z,68.10
2019-01-20T02:36:22.431Z,65.80
2019-01-20T02:37:22.394Z,66.50
2019-01-20T02:38:22.362Z,63.80
2019-01-20T02:39:22.869Z,66.60
2019-01-20T02:40:22.341Z,66.30
2019-01-20T02:41:22.315Z,62.10
2019-01-20T02:42:22.876Z,63.60
2019-01-20T02:43:22.320Z,68.60
2019-01-20T02:44:22.326Z,66.10
2019-01-20T02:45:22.305Z,66.60
2019-01-20T02:46:22.228Z,67.30
2019-01-20T02:47:22.871Z,67.60
2019-01-20T02:48:22.265Z,62.50
2019-01-20T02:49:22.198Z,66.40
2019-01-20T02:50:22.228Z,65.90
2019-01-20T02:51:22.179Z,67.50
2019-01-20T02:52:22.200Z,68.40
2019-01-20T02:53:22.188Z,64.90
2019-01-20T02:54:22.316Z,70.70
2019-01-20T02:55:22.870Z,64.40
2019-01-20T02:56:22.151Z,64.90
2019-01-20T02:57:22.111Z,69.00
2019-01-20T02:58:22.139Z,61.20
2019-01-20T02:59:22.092Z,64.10
2019-01-20T03:00:22.352Z,64.90
2019-01-20T03:01:22.061Z,66.40
2019-01-20T03:02:22.123Z,64.70
2019-01-20T03:03:22.069Z,66.10
2019-01-20T03:04:22.039Z,63.10
2019-01-20T03:05:22.068Z,69.60
2019-01-20T03:06:22.088Z,62.30
2019-01-20T03:07:22.070Z,66.10
2019-01-20T03:08:22.152Z,65.70
2019-01-20T03:09:22.076Z,62.90
2019-01-20T03:10:22.066Z,67.60
2019-01-20T03:11:22.081Z,63.10
2019-01-20T03:12:21.975Z,66.00
2019-01-20T03:13:21.959Z,64.40
2019-01-20T03:14:21.980Z,64.60
2019-01-20T03:15:21.981Z,67.30
2019-01-20T03:16:22.869Z,65.10
2019-01-20T03:17:21.936Z,71.70
2019-01-20T03:18:22.008Z,65.60
2019-01-20T03:19:21.920Z,66.50
2019-01-20T03:20:21.901Z,68.00
2019-01-20T03:21:22.375Z,65.40
2019-01-20T03:22:21.987Z,63.30
2019-01-20T03:23:21.932Z,66.10
2019-01-20T03:24:21.931Z,66.30
2019-01-20T03:25:21.889Z,67.10
2019-01-20T03:26:21.956Z,66.30
2019-01-20T03:27:21.936Z,66.90
2019-01-20T03:28:21.828Z,63.90
2019-01-20T03:29:21.870Z,67.30
2019-01-20T03:30:21.802Z,66.70
2019-01-20T03:31:21.847Z,63.50
2019-01-20T03:32:21.810Z,66.00
2019-01-20T03:33:21.835Z,63.60
2019-01-20T03:34:22.374Z,63.60
2019-01-20T03:35:21.774Z,61.90
2019-01-20T03:36:21.820Z,64.60
2019-01-20T03:37:21.750Z,64.50
2019-01-20T03:38:21.791Z,63.00
2019-01-20T03:39:31.495Z,66.40
2019-01-20T03:42:43.150Z,67.40
2019-01-20T03:43:43.032Z,71.10
2019-01-20T03:44:42.958Z,63.90
2019-01-20T03:45:42.968Z,64.80
2019-01-20T03:46:42.915Z,67.30
2019-01-20T03:47:42.905Z,65.30
2019-01-20T03:48:51.830Z,64.80
2019-01-20T03:49:42.869Z,61.40
2019-01-20T03:50:42.880Z,68.00
2019-01-20T03:51:43.723Z,65.30
2019-01-20T03:52:42.847Z,66.50
2019-01-20T03:53:42.834Z,67.90
2019-01-20T03:54:42.859Z,63.80
2019-01-20T03:55:42.806Z,69.10
2019-01-20T03:56:42.932Z,66.20
2019-01-20T03:57:42.799Z,64.30
2019-01-20T03:58:42.779Z,61.60
2019-01-20T03:59:42.775Z,64.30
2019-01-20T04:00:42.837Z,66.50
2019-01-20T04:01:42.741Z,66.40
2019-01-20T04:02:42.739Z,69.10
2019-01-20T04:03:42.764Z,66.30
2019-01-20T04:04:42.715Z,64.20
2019-01-20T04:05:42.756Z,64.10
2019-01-20T04:06:42.687Z,66.50
2019-01-20T04:07:42.688Z,64.80
2019-01-20T04:08:42.664Z,63.20
2019-01-20T04:09:42.667Z,67.20
2019-01-20T04:10:42.672Z,62.90
2019-01-20T04:11:42.679Z,69.40
2019-01-20T04:12:42.673Z,63.30
2019-01-20T04:13:42.657Z,64.50
2019-01-20T04:14:42.666Z,64.40
2019-01-20T04:15:42.626Z,62.40
2019-01-20T04:16:42.650Z,68.10
2019-01-20T04:17:42.583Z,65.40
2019-01-20T04:18:42.617Z,62.70
2019-01-20T04:19:42.576Z,65.90
2019-01-20T04:20:42.571Z,73.60
2019-01-20T04:21:42.560Z,70.30
2019-01-20T04:22:42.561Z,67.80
2019-01-20T04:23:42.564Z,64.90
2019-01-20T04:24:42.547Z,66.80
2019-01-20T04:25:42.536Z,71.20
2019-01-20T04:26:42.530Z,63.30
2019-01-20T04:27:42.548Z,67.90
2019-01-20T04:28:42.483Z,68.90
2019-01-20T04:29:42.464Z,74.60
2019-01-20T04:30:42.475Z,66.10
2019-01-20T04:31:42.454Z,66.40
2019-01-20T04:32:42.453Z,65.80
2019-01-20T04:33:42.479Z,65.70
2019-01-20T04:34:42.414Z,65.90
2019-01-20T04:35:42.426Z,67.70
2019-01-20T04:36:42.396Z,66.90
2019-01-20T04:37:42.377Z,67.00
2019-01-20T04:38:42.420Z,67.70
2019-01-20T04:39:42.407Z,75.90
2019-01-20T04:40:42.366Z,68.30
2019-01-20T04:41:42.362Z,69.00
2019-01-20T04:42:42.350Z,71.30
2019-01-20T04:43:42.347Z,64.50
2019-01-20T04:44:42.342Z,67.40
2019-01-20T04:45:42.341Z,67.40
2019-01-20T04:46:42.332Z,71.40
2019-01-20T04:47:42.334Z,72.20
2019-01-20T04:48:42.310Z,70.60
2019-01-20T04:49:42.306Z,66.90
2019-01-20T04:50:42.302Z,68.60
2019-01-20T04:51:42.272Z,66.30
2019-01-20T04:52:42.244Z,69.70
2019-01-20T04:53:42.266Z,68.70
2019-01-20T04:54:42.210Z,70.30
2019-01-20T04:55:42.227Z,74.90
2019-01-20T04:56:42.229Z,67.70
2019-01-20T04:57:42.202Z,71.00
2019-01-20T04:58:42.172Z,70.20
2019-01-20T04:59:42.217Z,67.70
2019-01-20T05:00:42.202Z,72.60
2019-01-20T05:01:42.141Z,72.00
2019-01-20T05:02:42.168Z,72.60
2019-01-20T05:03:42.155Z,71.70
2019-01-20T05:04:42.128Z,68.70
2019-01-20T05:05:42.105Z,70.60
2019-01-20T05:06:42.153Z,66.80
2019-01-20T05:07:42.101Z,72.00
2019-01-20T05:08:42.099Z,71.10
2019-01-20T05:09:42.071Z,71.20
2019-01-20T05:10:42.070Z,72.00
2019-01-20T05:11:42.071Z,70.60
2019-01-20T05:12:42.038Z,71.40
2019-01-20T05:13:42.098Z,75.20
2019-01-20T05:14:42.008Z,76.10
2019-01-20T05:15:42.013Z,71.90
2019-01-20T05:16:42.047Z,72.20
2019-01-20T05:17:42.010Z,69.30
2019-01-20T05:18:41.983Z,70.40
2019-01-20T05:19:41.983Z,72.80
2019-01-20T05:20:41.970Z,70.00
2019-01-20T05:21:41.969Z,73.30
2019-01-20T05:22:41.994Z,73.80
2019-01-20T05:23:42.041Z,80.70
2019-01-20T05:24:41.908Z,74.60
2019-01-20T05:25:41.961Z,72.20
2019-01-20T05:26:41.885Z,71.70
2019-01-20T05:27:41.888Z,76.30
2019-01-20T05:28:41.871Z,72.10
2019-01-20T05:29:41.935Z,76.80
2019-01-20T05:30:41.851Z,75.00
2019-01-20T05:31:41.949Z,76.50
2019-01-20T05:32:41.838Z,71.90
2019-01-20T05:33:41.832Z,71.20
2019-01-20T05:34:41.837Z,72.20
2019-01-20T05:35:41.819Z,74.10
2019-01-20T05:36:41.785Z,72.30
2019-01-20T05:37:41.801Z,75.10
2019-01-20T05:38:41.837Z,77.70
2019-01-20T05:39:41.773Z,73.60
2019-01-20T05:40:41.791Z,76.60
2019-01-20T05:41:41.747Z,73.30
2019-01-20T05:42:46.523Z,72.30
2019-01-20T05:43:41.744Z,76.40
2019-01-20T05:44:41.740Z,75.10
2019-01-20T05:45:41.710Z,74.60
2019-01-20T05:46:41.710Z,73.90
2019-01-20T05:47:41.725Z,74.40
2019-01-20T05:48:41.680Z,71.20
2019-01-20T05:49:41.712Z,75.00
2019-01-20T05:50:41.665Z,74.70
2019-01-20T05:51:41.684Z,74.90
2019-01-20T05:52:41.639Z,75.50
2019-01-20T05:53:41.667Z,70.00
2019-01-20T05:54:41.656Z,75.00
2019-01-20T05:55:41.599Z,75.40
2019-01-20T05:56:41.629Z,74.00
2019-01-20T05:57:41.580Z,75.90
2019-01-20T05:58:41.588Z,73.40
2019-01-20T05:59:41.566Z,71.40
2019-01-20T06:00:41.572Z,71.70
2019-01-20T06:01:41.541Z,71.60
2019-01-20T06:02:41.594Z,72.50
2019-01-20T06:03:41.586Z,69.00
2019-01-20T06:04:41.523Z,72.60
2019-01-20T06:05:41.518Z,75.60
2019-01-20T06:06:41.522Z,74.90
2019-01-20T06:07:41.480Z,74.90
2019-01-20T06:08:41.485Z,75.40
2019-01-20T06:09:41.471Z,73.40
2019-01-20T06:10:41.481Z,75.30
2019-01-20T06:11:41.477Z,71.00
2019-01-20T06:12:41.449Z,70.40
2019-01-20T06:13:41.470Z,70.30
2019-01-20T06:14:41.455Z,71.20
2019-01-20T06:15:41.446Z,71.70
2019-01-20T06:16:41.409Z,72.10
2019-01-20T06:17:41.380Z,68.20
2019-01-20T06:18:41.511Z,71.30
2019-01-20T06:19:41.365Z,69.30
2019-01-20T06:20:41.387Z,72.30
2019-01-20T06:21:41.349Z,68.20
2019-01-20T06:22:41.352Z,69.40
2019-01-20T06:23:41.337Z,67.40
2019-01-20T06:24:41.360Z,74.10
2019-01-20T06:25:41.364Z,68.00
2019-01-20T06:26:41.323Z,69.90
2019-01-20T06:27:41.295Z,69.40
2019-01-20T06:28:41.269Z,66.60
2019-01-20T06:29:41.272Z,69.70
2019-01-20T06:30:41.290Z,67.60
2019-01-20T06:31:41.247Z,67.60
2019-01-20T06:32:41.230Z,73.20
2019-01-20T06:33:41.246Z,68.10
2019-01-20T06:34:41.225Z,69.60
2019-01-20T06:35:41.234Z,68.80
2019-01-20T06:36:41.215Z,67.10
2019-01-20T06:37:41.214Z,70.50
2019-01-20T06:38:51.364Z,69.80
2019-01-20T06:39:50.459Z,66.40
2019-01-20T06:40:51.464Z,67.00
2019-01-20T06:41:41.498Z,65.30
2019-01-20T06:42:41.169Z,70.00
2019-01-20T06:44:58.549Z,65.70
2019-01-20T06:46:07.994Z,68.60
2019-01-20T06:48:15.998Z,69.30
2019-01-20T06:49:25.336Z,69.60
2019-01-20T06:50:25.435Z,66.50
2019-01-20T06:51:26.371Z,66.50
2019-01-20T06:52:24.907Z,66.90
2019-01-20T06:53:15.978Z,66.30
2019-01-20T06:54:15.852Z,69.60
2019-01-20T06:55:15.859Z,66.10
2019-01-20T06:56:15.826Z,68.40
2019-01-20T06:57:15.850Z,66.90
2019-01-20T06:58:15.824Z,65.60
2019-01-20T06:59:27.347Z,66.20
2019-01-20T07:00:15.749Z,64.90
2019-01-20T07:01:15.752Z,70.60
2019-01-20T07:02:15.744Z,70.00
2019-01-20T07:03:15.815Z,61.80
2019-01-20T07:04:15.715Z,69.60
2019-01-20T07:05:15.724Z,67.10
2019-01-20T07:06:15.718Z,63.20
2019-01-20T07:07:15.699Z,68.00
2019-01-20T07:08:15.678Z,68.60
2019-01-20T07:09:15.688Z,63.70
2019-01-20T07:10:16.349Z,66.30
2019-01-20T07:11:15.665Z,67.70
2019-01-20T07:12:15.722Z,66.60
2019-01-20T07:13:20.378Z,64.60
2019-01-20T07:14:16.503Z,68.10
2019-01-20T07:15:18.695Z,65.40
2019-01-20T07:16:18.399Z,63.80
2019-01-20T07:17:15.611Z,65.90
2019-01-20T07:18:15.589Z,69.70
2019-01-20T07:19:15.602Z,63.20
2019-01-20T07:20:15.622Z,61.60
2019-01-20T07:21:15.599Z,68.60
2019-01-20T07:22:15.540Z,61.10
2019-01-20T07:23:15.579Z,68.40
2019-01-20T07:24:15.712Z,64.70
2019-01-20T07:25:22.428Z,66.60
2019-01-20T07:26:15.536Z,63.50
2019-01-20T07:27:15.507Z,63.00
2019-01-20T07:28:15.539Z,63.60
2019-01-20T07:29:15.506Z,66.10
2019-01-20T07:30:15.473Z,66.00
2019-01-20T07:31:15.498Z,69.00
2019-01-20T07:32:15.469Z,66.30
2019-01-20T07:33:15.454Z,70.90
2019-01-20T07:34:15.442Z,68.50
2019-01-20T07:35:15.428Z,66.80
2019-01-20T07:36:15.428Z,65.00
2019-01-20T07:37:15.448Z,68.20
2019-01-20T07:38:15.423Z,68.20
2019-01-20T07:39:15.398Z,66.70
2019-01-20T07:40:15.390Z,64.90
2019-01-20T07:41:15.358Z,67.40
2019-01-20T07:42:15.404Z,62.70
2019-01-20T07:43:17.043Z,64.70
2019-01-20T07:44:15.359Z,64.90
2019-01-20T07:45:15.323Z,66.80
2019-01-20T07:46:15.339Z,65.50
2019-01-20T07:47:15.346Z,71.80
2019-01-20T07:48:15.305Z,68.10
2019-01-20T07:49:15.302Z,70.40
2019-01-20T07:50:15.300Z,66.20
2019-01-20T07:51:15.354Z,64.20
2019-01-20T07:52:15.293Z,67.70
2019-01-20T07:53:15.268Z,67.20
2019-01-20T07:54:15.274Z,68.00
2019-01-20T07:55:15.233Z,67.60
2019-01-20T07:56:15.228Z,65.40
2019-01-20T07:57:15.205Z,69.10
2019-01-20T07:58:15.241Z,71.30
2019-01-20T07:59:15.205Z,67.00
2019-01-20T08:00:15.208Z,68.50
2019-01-20T08:01:15.176Z,62.50
2019-01-20T08:02:15.169Z,71.10
2019-01-20T08:03:15.152Z,61.80
2019-01-20T08:04:15.179Z,65.40
2019-01-20T08:05:15.133Z,65.00
2019-01-20T08:06:15.115Z,64.50
2019-01-20T08:07:15.146Z,67.80
2019-01-20T08:08:15.107Z,62.20
2019-01-20T08:09:15.157Z,62.00
2019-01-20T08:10:15.145Z,63.00
2019-01-20T08:11:15.076Z,63.20
2019-01-20T08:12:15.105Z,67.40
2019-01-20T08:13:15.056Z,63.70
2019-01-20T08:14:15.037Z,62.60
2019-01-20T08:15:15.085Z,63.30
2019-01-20T08:16:15.015Z,62.40
2019-01-20T08:17:15.041Z,62.10
2019-01-20T08:18:15.852Z,60.70
2019-01-20T08:19:14.987Z,61.60
2019-01-20T08:20:15.004Z,62.00
2019-01-20T08:21:15.015Z,62.50
2019-01-20T08:22:14.966Z,58.80
2019-01-20T08:23:14.975Z,59.60
2019-01-20T08:24:14.935Z,62.10
2019-01-20T08:25:14.946Z,61.60
2019-01-20T08:26:14.932Z,60.70
2019-01-20T08:27:14.910Z,60.40
2019-01-20T08:28:14.917Z,65.10
2019-01-20T08:29:14.891Z,63.30
2019-01-20T08:30:14.926Z,65.10
2019-01-20T08:31:14.870Z,64.30
2019-01-20T08:32:14.880Z,61.60
2019-01-20T08:33:14.861Z,63.40
2019-01-20T08:34:14.901Z,65.40
2019-01-20T08:35:14.830Z,64.50
2019-01-20T08:36:14.866Z,63.80
2019-01-20T08:37:14.822Z,64.20
2019-01-20T08:38:14.812Z,64.30
2019-01-20T08:39:14.806Z,65.50
2019-01-20T08:40:14.770Z,63.00
2019-01-20T08:41:14.806Z,61.70
2019-01-20T08:42:14.791Z,64.70
2019-01-20T08:43:14.751Z,62.40
2019-01-20T08:44:14.768Z,63.90
2019-01-20T08:45:14.753Z,65.20
2019-01-20T08:46:14.742Z,65.30
2019-01-20T08:47:14.742Z,62.30
2019-01-20T08:48:14.707Z,65.10
2019-01-20T08:49:14.739Z,64.30
2019-01-20T08:50:14.679Z,64.80
2019-01-20T08:51:14.664Z,64.20
2019-01-20T08:52:14.668Z,62.10
2019-01-20T08:53:14.658Z,63.30
2019-01-20T08:54:14.662Z,69.20
2019-01-20T08:55:14.635Z,62.20
2019-01-20T08:56:14.600Z,66.50
2019-01-20T08:57:14.628Z,68.00
2019-01-20T08:58:14.580Z,64.30
2019-01-20T08:59:14.577Z,63.20
2019-01-20T09:00:14.568Z,66.00
2019-01-20T09:01:14.567Z,64.00
2019-01-20T09:21:32.920Z,72.00
2019-01-20T09:36:24.838Z,66.70
2019-01-20T09:37:24.841Z,68.90
2019-01-20T09:38:25.502Z,66.50
2019-01-20T09:39:24.748Z,68.70
2019-01-20T09:40:24.776Z,71.00
2019-01-20T09:41:33.619Z,67.50
2019-01-20T09:42:34.017Z,69.20
2019-01-20T09:44:43.043Z,66.80
2019-01-20T09:45:42.761Z,67.80
2019-01-20T09:46:42.772Z,68.40
2019-01-20T09:47:43.462Z,67.80
2019-01-20T09:48:42.771Z,71.50
2019-01-20T09:49:42.765Z,68.20
2019-01-20T09:50:42.760Z,71.00
2019-01-20T09:51:42.787Z,69.40
2019-01-20T09:52:51.893Z,68.90
2019-01-20T09:53:42.651Z,67.70
2019-01-20T09:54:42.690Z,67.00
2019-01-20T09:55:42.609Z,69.90
2019-01-20T09:56:42.626Z,66.70
2019-01-20T09:57:42.601Z,70.50
2019-01-20T09:58:42.611Z,69.50
2019-01-20T09:59:42.566Z,67.70
2019-01-20T10:00:42.637Z,66.30
2019-01-20T10:01:42.544Z,66.70
2019-01-20T10:02:42.573Z,68.50
2019-01-20T10:03:42.550Z,67.70
2019-01-20T10:04:42.573Z,66.90
2019-01-20T10:05:42.555Z,66.90
2019-01-20T10:06:42.492Z,66.70
2019-01-20T10:07:42.486Z,67.90
2019-01-20T10:08:42.505Z,67.70
2019-01-20T10:09:42.485Z,67.20
2019-01-20T10:10:42.507Z,65.50
2019-01-20T10:11:42.447Z,68.00
2019-01-20T10:12:42.485Z,66.20
2019-01-20T10:13:42.428Z,68.50
2019-01-20T10:14:42.435Z,64.10
2019-01-20T10:15:42.419Z,65.40
2019-01-20T10:16:42.438Z,65.10
2019-01-20T10:17:42.464Z,66.70
2019-01-20T10:18:42.383Z,62.80
2019-01-20T10:19:42.376Z,65.30
2019-01-20T10:20:42.371Z,65.40
2019-01-20T10:21:42.375Z,64.30
2019-01-20T10:22:42.350Z,60.50
2019-01-20T10:23:42.347Z,58.70
2019-01-20T10:24:42.343Z,62.00
2019-01-20T10:25:42.318Z,62.80
2019-01-20T10:26:42.310Z,62.20
2019-01-20T10:27:42.323Z,61.10
2019-01-20T10:28:42.294Z,62.40
2019-01-20T10:29:42.281Z,64.70
2019-01-20T10:30:42.270Z,61.00
2019-01-20T10:31:42.385Z,63.30
2019-01-20T10:32:42.268Z,62.40
2019-01-20T10:33:42.366Z,62.50
2019-01-20T10:34:42.264Z,62.80
2019-01-20T10:35:42.222Z,63.30
2019-01-20T10:36:42.194Z,62.80
2019-01-20T10:37:42.223Z,59.10
2019-01-20T10:38:42.192Z,59.00
2019-01-20T10:39:42.187Z,61.20
2019-01-20T10:40:42.250Z,63.20
2019-01-20T10:41:42.165Z,59.90
2019-01-20T10:42:52.808Z,62.70
2019-01-20T10:44:59.519Z,60.50
2019-01-20T10:47:09.677Z,59.50
2019-01-20T10:49:20.820Z,62.00
2019-01-20T10:50:33.159Z,59.80
2019-01-20T10:51:30.209Z,60.70
2019-01-20T10:52:29.742Z,58.30
2019-01-20T10:53:20.781Z,59.20
2019-01-20T10:54:20.798Z,59.90
2019-01-20T10:55:29.425Z,57.60
2019-01-20T10:56:20.757Z,57.60
2019-01-20T10:57:20.788Z,60.60
2019-01-20T10:58:20.685Z,59.80
2019-01-20T10:59:20.688Z,54.70
2019-01-20T11:00:20.698Z,55.40
2019-01-20T11:01:20.664Z,57.10
2019-01-20T11:02:20.646Z,55.10
2019-01-20T11:03:20.835Z,56.10
2019-01-20T11:04:20.648Z,57.80
2019-01-20T11:05:24.846Z,58.90
2019-01-20T11:08:43.935Z,58.20
2019-01-20T11:09:52.813Z,56.80
2019-01-20T11:10:55.321Z,56.70
2019-01-20T11:11:53.393Z,57.50
2019-01-20T11:12:43.878Z,56.50
2019-01-20T11:13:53.367Z,58.10
2019-01-20T11:14:52.930Z,60.20
2019-01-20T11:15:53.505Z,64.20
2019-01-20T11:16:53.004Z,67.80
2019-01-20T11:17:43.856Z,62.70
2019-01-20T11:18:53.102Z,67.30
2019-01-20T11:19:43.825Z,61.10
2019-01-20T11:22:01.183Z,55.80
2019-01-20T11:23:01.239Z,55.20
2019-01-20T11:24:01.159Z,57.80
2019-01-20T11:25:01.183Z,57.00
2019-01-20T11:26:01.163Z,53.30
2019-01-20T11:27:01.146Z,53.90
2019-01-20T11:28:01.136Z,53.60
2019-01-20T11:29:01.099Z,55.40
2019-01-20T11:30:01.104Z,57.20
2019-01-20T11:31:10.127Z,52.00
2019-01-20T11:32:01.109Z,49.10
2019-01-20T11:33:01.101Z,52.50
2019-01-20T11:34:01.101Z,50.40
2019-01-20T11:35:01.409Z,53.10
2019-01-20T11:36:01.144Z,53.40
2019-01-20T11:37:01.079Z,52.90
2019-01-20T11:38:01.032Z,54.50
2019-01-20T11:39:01.143Z,51.40
2019-01-20T11:40:00.998Z,47.90
2019-01-20T11:41:01.031Z,48.70
2019-01-20T11:42:00.981Z,49.90
2019-01-20T11:43:01.488Z,50.60
2019-01-20T11:44:00.978Z,52.00
2019-01-20T11:45:00.962Z,51.80
2019-01-20T11:46:00.960Z,52.20
2019-01-20T11:47:01.063Z,50.10
2019-01-20T11:48:00.913Z,51.80
2019-01-20T11:49:00.957Z,50.30
2019-01-20T11:50:00.904Z,51.40
2019-01-20T11:51:00.926Z,49.30
2019-01-20T11:52:00.940Z,50.40
2019-01-20T11:53:00.931Z,49.30
2019-01-20T11:54:00.954Z,48.90
2019-01-20T11:55:00.861Z,50.80
2019-01-20T11:56:00.846Z,51.50
2019-01-20T11:57:00.852Z,50.30
2019-01-20T11:58:00.964Z,50.30
2019-01-20T11:59:00.832Z,50.40
2019-01-20T12:00:00.843Z,49.50
2019-01-20T12:01:00.808Z,50.90
2019-01-20T12:02:00.854Z,51.50
2019-01-20T12:03:00.834Z,50.90
2019-01-20T12:04:00.887Z,47.00
2019-01-20T12:05:00.752Z,47.20
2019-01-20T12:06:00.773Z,48.20
2019-01-20T12:07:00.734Z,50.20
2019-01-20T12:08:00.819Z,50.70
2019-01-20T12:09:00.748Z,46.60
2019-01-20T12:10:00.691Z,48.50
2019-01-20T12:11:00.668Z,49.10
2019-01-20T12:12:00.710Z,50.80
2019-01-20T12:13:00.733Z,48.90
2019-01-20T12:14:00.693Z,48.90
2019-01-20T12:15:00.939Z,48.00
2019-01-20T12:16:00.645Z,50.10
2019-01-20T12:17:00.661Z,47.20
2019-01-20T12:18:00.655Z,49.50
2019-01-20T12:19:00.634Z,43.00
2019-01-20T12:20:00.621Z,46.50
2019-01-20T12:21:00.769Z,46.30
2019-01-20T12:22:00.605Z,48.10
2019-01-20T12:23:00.561Z,47.50
2019-01-20T12:24:00.717Z,46.40
2019-01-20T12:25:00.542Z,46.80
2019-01-20T12:26:00.603Z,47.20
2019-01-20T12:27:00.566Z,42.80
2019-01-20T12:28:00.624Z,45.20
2019-01-20T12:29:00.503Z,44.30
2019-01-20T12:30:00.484Z,45.00
2019-01-20T12:31:00.489Z,42.40
2019-01-20T12:32:00.494Z,43.30
2019-01-20T12:33:00.454Z,43.50
2019-01-20T12:34:00.475Z,43.70
2019-01-20T12:35:00.462Z,44.90
2019-01-20T12:36:00.466Z,42.20
2019-01-20T12:37:00.496Z,42.60
2019-01-20T12:38:00.407Z,42.30
2019-01-20T12:39:00.403Z,40.70
2019-01-20T12:40:00.396Z,43.20
2019-01-20T12:41:00.442Z,44.00
2019-01-20T12:42:00.375Z,42.20
2019-01-20T12:43:00.386Z,43.80
2019-01-20T12:44:00.387Z,42.30
2019-01-20T12:45:00.326Z,42.60
2019-01-20T12:46:08.655Z,45.30
2019-01-20T12:47:00.374Z,44.00
2019-01-20T12:48:00.412Z,42.30
2019-01-20T12:49:00.326Z,41.90
2019-01-20T12:50:00.274Z,43.60
2019-01-20T12:51:12.462Z,40.80
2019-01-20T12:52:00.321Z,39.00
2019-01-20T12:53:00.317Z,40.90
2019-01-20T12:54:00.279Z,40.60
2019-01-20T12:55:00.318Z,43.10
2019-01-20T12:56:00.297Z,39.30
2019-01-20T12:57:00.221Z,39.20
2019-01-20T12:58:01.034Z,41.00
2019-01-20T12:59:00.248Z,43.60
2019-01-20T13:00:00.286Z,44.00
2019-01-20T13:01:09.621Z,44.10
2019-01-20T13:02:00.212Z,43.40
2019-01-20T13:03:00.148Z,43.90
2019-01-20T13:04:00.120Z,42.80
2019-01-20T13:05:00.273Z,42.40
2019-01-20T13:06:00.095Z,43.20
2019-01-20T13:07:00.107Z,42.90
2019-01-20T13:08:00.119Z,42.50
2019-01-20T13:09:00.063Z,41.80
2019-01-20T13:10:00.143Z,44.40
2019-01-20T13:11:00.629Z,43.20
2019-01-20T13:12:05.795Z,45.00
2019-01-20T13:13:00.085Z,43.60
2019-01-20T13:14:00.114Z,42.40
2019-01-20T13:15:00.249Z,42.60
2019-01-20T13:16:01.051Z,43.30
2019-01-20T13:17:00.051Z,42.70
2019-01-20T13:18:00.021Z,44.70
2019-01-20T13:19:00.025Z,42.90
2019-01-20T13:19:59.991Z,43.40
2019-01-20T13:20:59.944Z,43.40
2019-01-20T13:21:59.946Z,40.80
2019-01-20T13:22:59.979Z,42.80
2019-01-20T13:23:59.918Z,42.80
2019-01-20T13:24:59.924Z,44.40
2019-01-20T13:26:00.244Z,40.30
2019-01-20T13:27:00.294Z,43.80
2019-01-20T13:28:05.018Z,41.60
2019-01-20T13:29:01.555Z,44.00
2019-01-20T13:29:59.928Z,46.10
2019-01-20T13:30:59.867Z,43.60
2019-01-20T13:31:59.827Z,44.90
2019-01-20T13:32:59.828Z,45.90
2019-01-20T13:33:59.826Z,45.70
2019-01-20T13:34:59.791Z,47.20
2019-01-20T13:36:06.939Z,43.70
2019-01-20T13:37:00.798Z,45.40
2019-01-20T13:37:59.784Z,44.10
2019-01-20T13:38:59.755Z,47.90
2019-01-20T13:40:00.639Z,48.50